Masterson, Texas
Current Conditions -  °F | °C
As of 11:15 AM on Saturday 25 Oct 2014 (Local Time) from KDUX Reporting Station
NA  
Wind Chill: 74°   Ceiling: NA
Heat Index: 74°   Visibility: 10mi
Dew Point: 49°   Wind: 12mph
Humidity: 42%   Direction: 220°SW
Pressure: 30.17"   Gusts: NA
Location:  35.64°N, 101.96°W
Report Text: KDUX 251615Z AUTO 22010KT 10SM 23/10 A3017 RMK AO2 T02330097
Loading
Personal Weather Stations






























Interactive Weather Map
Tropical Storm Tracking
New forecast layout! Learn more

10-Day Weather Forecast

Advertisements
Track Severe Weather on mobile